Santo Antonio do Sudoeste, Brazil
Current Conditions -  °F | °C
As of 9:00 AM on Sunday 21 Dec 2014 (Local Time) from SARI Reporting Station
Light Rain Light Rain  
Wind Chill: 73°   Ceiling: 3000
Heat Index: 73°   Visibility: 1.5mi
Dew Point: 73°   Wind: 8mph
Humidity: 100%   Direction: 50°NE
Pressure: 29.71"   Gusts: NA
Location:  26.07°S, 53.73°W
Report Text: SARI 211100Z 05007KT 2500 -RA BR BKN030 OVC050 23/23 Q1006
Loading
Personal Weather Stations






























Interactive Weather Map New forecast layout! Learn more

10-Day Weather Forecast

Advertisements
Track Severe Weather on mobile